sensor_id;sensor_type;location;lat;lon;timestamp;pressure;altitude;pressure_sealevel;temperature;humidity
47670;BME280;33408;52.062;11.722;2023-04-15T00:01:57;100328.09;;;6.54;100.00
47670;BME280;33408;52.062;11.722;2023-04-15T00:04:24;100322.91;;;6.57;100.00
47670;BME280;33408;52.062;11.722;2023-04-15T00:06:52;100322.88;;;6.62;100.00
47670;BME280;33408;52.062;11.722;2023-04-15T00:09:19;100316.97;;;6.51;100.00
47670;BME280;33408;52.062;11.722;2023-04-15T00:11:46;100312.66;;;6.53;100.00
47670;BME280;33408;52.062;11.722;2023-04-15T00:14:12;100318.53;;;6.66;100.00
47670;BME280;33408;52.062;11.722;2023-04-15T00:16:39;100310.72;;;6.78;100.00
47670;BME280;33408;52.062;11.722;2023-04-15T00:19:06;100316.00;;;6.63;100.00
47670;BME280;33408;52.062;11.722;2023-04-15T00:21:33;100319.38;;;6.68;100.00
47670;BME280;33408;52.062;11.722;2023-04-15T00:24:01;100319.34;;;6.71;100.00
47670;BME280;33408;52.062;11.722;2023-04-15T00:26:28;100323.59;;;6.77;100.00
47670;BME280;33408;52.062;11.722;2023-04-15T00:28:54;100320.06;;;6.85;100.00
47670;BME280;33408;52.062;11.722;2023-04-15T00:31:21;100315.00;;;6.74;100.00
47670;BME280;33408;52.062;11.722;2023-04-15T00:33:47;100315.09;;;6.70;100.00
47670;BME280;33408;52.062;11.722;2023-04-15T00:36:14;100318.53;;;6.67;100.00
47670;BME280;33408;52.062;11.722;2023-04-15T00:38:40;100309.09;;;6.65;100.00
47670;BME280;33408;52.062;11.722;2023-04-15T00:41:09;100308.22;;;6.69;100.00
47670;BME280;33408;52.062;11.722;2023-04-15T00:43:36;100312.53;;;6.65;100.00
47670;BME280;33408;52.062;11.722;2023-04-15T00:46:03;100309.97;;;6.64;100.00
47670;BME280;33408;52.062;11.722;2023-04-15T00:48:30;100303.97;;;6.62;100.00
47670;BME280;33408;52.062;11.722;2023-04-15T00:50:57;100296.22;;;6.65;100.00
47670;BME280;33408;52.062;11.722;2023-04-15T00:53:23;100289.38;;;6.62;100.00
47670;BME280;33408;52.062;11.722;2023-04-15T00:55:50;100292.00;;;6.59;100.00
47670;BME280;33408;52.062;11.722;2023-04-15T00:58:18;100294.47;;;6.70;100.00
47670;BME280;33408;52.062;11.722;2023-04-15T01:00:45;100283.25;;;6.74;100.00
47670;BME280;33408;52.062;11.722;2023-04-15T01:03:12;100282.56;;;6.56;100.00
47670;BME280;33408;52.062;11.722;2023-04-15T01:05:39;100286.00;;;6.59;100.00
47670;BME280;33408;52.062;11.722;2023-04-15T01:08:06;100279.19;;;6.50;100.00
47670;BME280;33408;52.062;11.722;2023-04-15T01:10:34;100271.28;;;6.70;100.00
47670;BME280;33408;52.062;11.722;2023-04-15T01:13:01;100271.47;;;6.51;100.00
47670;BME280;33408;52.062;11.722;2023-04-15T01:15:29;100274.84;;;6.56;100.00
47670;BME280;33408;52.062;11.722;2023-04-15T01:17:56;100275.75;;;6.52;100.00
47670;BME280;33408;52.062;11.722;2023-04-15T01:20:24;100277.41;;;6.56;100.00
47670;BME280;33408;52.062;11.722;2023-04-15T01:22:53;100269.63;;;6.63;100.00
47670;BME280;33408;52.062;11.722;2023-04-15T01:25:29;100263.69;;;6.56;100.00
47670;BME280;33408;52.062;11.722;2023-04-15T01:27:57;100269.66;;;6.60;100.00
47670;BME280;33408;52.062;11.722;2023-04-15T01:30:24;100274.78;;;6.63;100.00
47670;BME280;33408;52.062;11.722;2023-04-15T01:32:51;100271.22;;;6.74;100.00
47670;BME280;33408;52.062;11.722;2023-04-15T01:35:18;100266.16;;;6.68;100.00
47670;BME280;33408;52.062;11.722;2023-04-15T01:37:45;100271.41;;;6.57;100.00
47670;BME280;33408;52.062;11.722;2023-04-15T01:40:12;100273.13;;;6.59;100.00
47670;BME280;33408;52.062;11.722;2023-04-15T01:42:40;100261.94;;;6.60;100.00
47670;BME280;33408;52.062;11.722;2023-04-15T01:45:08;100266.28;;;6.54;100.00
47670;BME280;33408;52.062;11.722;2023-04-15T01:47:35;100263.66;;;6.61;100.00
47670;BME280;33408;52.062;11.722;2023-04-15T01:50:02;100259.28;;;6.69;100.00
47670;BME280;33408;52.062;11.722;2023-04-15T01:52:28;100260.06;;;6.74;100.00
47670;BME280;33408;52.062;11.722;2023-04-15T01:54:55;100255.00;;;6.66;100.00
47670;BME280;33408;52.062;11.722;2023-04-15T01:57:22;100255.00;;;6.65;100.00
47670;BME280;33408;52.062;11.722;2023-04-15T01:59:49;100256.84;;;6.52;100.00
47670;BME280;33408;52.062;11.722;2023-04-15T02:02:16;100248.19;;;6.61;100.00
47670;BME280;33408;52.062;11.722;2023-04-15T02:04:43;100249.13;;;6.52;100.00
47670;BME280;33408;52.062;11.722;2023-04-15T02:07:09;100247.44;;;6.51;100.00
47670;BME280;33408;52.062;11.722;2023-04-15T02:09:36;100237.09;;;6.57;100.00
47670;BME280;33408;52.062;11.722;2023-04-15T02:12:03;100242.28;;;6.52;100.00
47670;BME280;33408;52.062;11.722;2023-04-15T02:14:29;100236.19;;;6.58;100.00
47670;BME280;33408;52.062;11.722;2023-04-15T02:16:59;100243.06;;;6.57;100.00
47670;BME280;33408;52.062;11.722;2023-04-15T02:19:31;100234.50;;;6.59;100.00
47670;BME280;33408;52.062;11.722;2023-04-15T02:21:58;100228.50;;;6.53;100.00
47670;BME280;33408;52.062;11.722;2023-04-15T02:24:27;100225.91;;;6.55;100.00
47670;BME280;33408;52.062;11.722;2023-04-15T02:26:53;100226.78;;;6.55;100.00
47670;BME280;33408;52.062;11.722;2023-04-15T02:29:20;100229.38;;;6.54;100.00
47670;BME280;33408;52.062;11.722;2023-04-15T02:31:47;100223.28;;;6.63;100.00
47670;BME280;33408;52.062;11.722;2023-04-15T02:34:15;100228.44;;;6.60;100.00
47670;BME280;33408;52.062;11.722;2023-04-15T02:36:41;100224.19;;;6.59;100.00
47670;BME280;33408;52.062;11.722;2023-04-15T02:39:08;100228.53;;;6.52;100.00
47670;BME280;33408;52.062;11.722;2023-04-15T02:41:35;100223.28;;;6.61;100.00
47670;BME280;33408;52.062;11.722;2023-04-15T02:44:02;100224.94;;;6.70;100.00
47670;BME280;33408;52.062;11.722;2023-04-15T02:46:28;100229.25;;;6.66;100.00
47670;BME280;33408;52.062;11.722;2023-04-15T02:48:55;100219.88;;;6.61;100.00
47670;BME280;33408;52.062;11.722;2023-04-15T02:51:25;100219.06;;;6.55;100.00
47670;BME280;33408;52.062;11.722;2023-04-15T02:53:51;100221.50;;;6.68;100.00
47670;BME280;33408;52.062;11.722;2023-04-15T02:56:18;100225.03;;;6.57;100.00
47670;BME280;33408;52.062;11.722;2023-04-15T02:58:45;100218.13;;;6.61;100.00
47670;BME280;33408;52.062;11.722;2023-04-15T03:01:14;100220.66;;;6.67;100.00
47670;BME280;33408;52.062;11.722;2023-04-15T03:03:41;100220.56;;;6.75;100.00
47670;BME280;33408;52.062;11.722;2023-04-15T03:06:07;100227.50;;;6.70;100.00
47670;BME280;33408;52.062;11.722;2023-04-15T03:08:35;100222.41;;;6.65;100.00
47670;BME280;33408;52.062;11.722;2023-04-15T03:11:03;100221.56;;;6.62;100.00
47670;BME280;33408;52.062;11.722;2023-04-15T03:13:29;100220.66;;;6.66;100.00
47670;BME280;33408;52.062;11.722;2023-04-15T03:15:56;100214.63;;;6.70;100.00
47670;BME280;33408;52.062;11.722;2023-04-15T03:18:22;100221.50;;;6.66;100.00
47670;BME280;33408;52.062;11.722;2023-04-15T03:20:49;100211.97;;;6.76;100.00
47670;BME280;33408;52.062;11.722;2023-04-15T03:23:15;100216.34;;;6.66;100.00
47670;BME280;33408;52.062;11.722;2023-04-15T03:25:45;100221.47;;;6.71;100.00
47670;BME280;33408;52.062;11.722;2023-04-15T03:28:11;100212.84;;;6.77;100.00
47670;BME280;33408;52.062;11.722;2023-04-15T03:30:38;100211.91;;;6.82;100.00
47670;BME280;33408;52.062;11.722;2023-04-15T03:33:04;100211.09;;;6.77;100.00
47670;BME280;33408;52.062;11.722;2023-04-15T03:35:31;100207.56;;;6.86;100.00
47670;BME280;33408;52.062;11.722;2023-04-15T03:37:57;100211.97;;;6.76;100.00
47670;BME280;33408;52.062;11.722;2023-04-15T03:40:24;100217.03;;;6.84;100.00
47670;BME280;33408;52.062;11.722;2023-04-15T03:42:52;100206.81;;;6.76;100.00
47670;BME280;33408;52.062;11.722;2023-04-15T03:45:19;100206.66;;;6.91;100.00
47670;BME280;33408;52.062;11.722;2023-04-15T03:47:46;100205.84;;;6.86;100.00
47670;BME280;33408;52.062;11.722;2023-04-15T03:50:13;100206.63;;;6.93;100.00
47670;BME280;33408;52.062;11.722;2023-04-15T03:52:40;100209.19;;;6.93;100.00
47670;BME280;33408;52.062;11.722;2023-04-15T03:55:07;100203.22;;;6.91;100.00
47670;BME280;33408;52.062;11.722;2023-04-15T03:57:34;100203.25;;;6.88;100.00
47670;BME280;33408;52.062;11.722;2023-04-15T04:00:06;100204.03;;;6.93;100.00
47670;BME280;33408;52.062;11.722;2023-04-15T04:02:33;100200.66;;;6.89;100.00
47670;BME280;33408;52.062;11.722;2023-04-15T04:05:00;100204.09;;;6.88;100.00
47670;BME280;33408;52.062;11.722;2023-04-15T04:07:27;100201.56;;;6.84;100.00
47670;BME280;33408;52.062;11.722;2023-04-15T04:09:54;100199.00;;;6.84;100.00
47670;BME280;33408;52.062;11.722;2023-04-15T04:12:20;100193.72;;;6.96;100.00
47670;BME280;33408;52.062;11.722;2023-04-15T04:14:47;100200.66;;;6.89;100.00
47670;BME280;33408;52.062;11.722;2023-04-15T04:17:15;100196.34;;;6.91;100.00
47670;BME280;33408;52.062;11.722;2023-04-15T04:19:41;100193.84;;;6.84;100.00
47670;BME280;33408;52.062;11.722;2023-04-15T04:22:08;100197.22;;;6.87;100.00
47670;BME280;33408;52.062;11.722;2023-04-15T04:24:34;100201.59;;;6.82;100.00
47670;BME280;33408;52.062;11.722;2023-04-15T04:27:01;100202.47;;;6.81;100.00
47670;BME280;33408;52.062;11.722;2023-04-15T04:29:27;100194.66;;;6.87;100.00
47670;BME280;33408;52.062;11.722;2023-04-15T04:31:54;100198.88;;;6.94;100.00
47670;BME280;33408;52.062;11.722;2023-04-15T04:34:22;100192.84;;;6.97;100.00
47670;BME280;33408;52.062;11.722;2023-04-15T04:36:49;100194.53;;;6.98;100.00
47670;BME280;33408;52.062;11.722;2023-04-15T04:39:15;100201.44;;;6.96;100.00
47670;BME280;33408;52.062;11.722;2023-04-15T04:41:43;100195.34;;;7.00;100.00
47670;BME280;33408;52.062;11.722;2023-04-15T04:44:10;100203.22;;;6.92;100.00
47670;BME280;33408;52.062;11.722;2023-04-15T04:46:36;100213.47;;;6.96;100.00
47670;BME280;33408;52.062;11.722;2023-04-15T04:49:03;100223.72;;;7.00;100.00
47670;BME280;33408;52.062;11.722;2023-04-15T04:51:31;100216.09;;;6.92;100.00
47670;BME280;33408;52.062;11.722;2023-04-15T04:53:58;100215.16;;;6.98;100.00
47670;BME280;33408;52.062;11.722;2023-04-15T04:56:24;100215.19;;;6.95;100.00
47670;BME280;33408;52.062;11.722;2023-04-15T04:58:51;100204.84;;;6.97;100.00
47670;BME280;33408;52.062;11.722;2023-04-15T05:01:18;100203.09;;;7.00;100.00
47670;BME280;33408;52.062;11.722;2023-04-15T05:03:45;100214.31;;;6.98;100.00
47670;BME280;33408;52.062;11.722;2023-04-15T05:06:11;100212.50;;;7.04;100.00
47670;BME280;33408;52.062;11.722;2023-04-15T05:08:39;100209.13;;;7.01;100.00
47670;BME280;33408;52.062;11.722;2023-04-15T05:11:06;100209.91;;;7.06;100.00
47670;BME280;33408;52.062;11.722;2023-04-15T05:13:33;100212.44;;;7.09;100.00
47670;BME280;33408;52.062;11.722;2023-04-15T05:16:03;100212.56;;;7.00;100.00
47670;BME280;33408;52.062;11.722;2023-04-15T05:18:30;100217.50;;;7.18;100.00
47670;BME280;33408;52.062;11.722;2023-04-15T05:20:57;100211.53;;;7.13;100.00
47670;BME280;33408;52.062;11.722;2023-04-15T05:23:24;100214.94;;;7.15;100.00
47670;BME280;33408;52.062;11.722;2023-04-15T05:25:52;100215.03;;;7.09;100.00
47670;BME280;33408;52.062;11.722;2023-04-15T05:28:19;100221.78;;;7.16;100.00
47670;BME280;33408;52.062;11.722;2023-04-15T05:30:46;100221.84;;;7.13;100.00
47670;BME280;33408;52.062;11.722;2023-04-15T05:33:12;100220.13;;;7.14;100.00
47670;BME280;33408;52.062;11.722;2023-04-15T05:35:39;100223.53;;;7.16;100.00
47670;BME280;33408;52.062;11.722;2023-04-15T05:38:06;100219.22;;;7.15;100.00
47670;BME280;33408;52.062;11.722;2023-04-15T05:40:32;100228.81;;;7.05;100.00
47670;BME280;33408;52.062;11.722;2023-04-15T05:43:00;100226.09;;;7.16;100.00
47670;BME280;33408;52.062;11.722;2023-04-15T05:45:27;100233.00;;;7.15;100.00
47670;BME280;33408;52.062;11.722;2023-04-15T05:47:53;100236.47;;;7.11;100.00
47670;BME280;33408;52.062;11.722;2023-04-15T05:50:20;100227.00;;;7.11;100.00
47670;BME280;33408;52.062;11.722;2023-04-15T05:52:47;100226.16;;;7.12;100.00
47670;BME280;33408;52.062;11.722;2023-04-15T05:55:13;100230.38;;;7.18;100.00
47670;BME280;33408;52.062;11.722;2023-04-15T05:57:40;100231.25;;;7.16;100.00
47670;BME280;33408;52.062;11.722;2023-04-15T06:00:09;100230.34;;;7.21;100.00
47670;BME280;33408;52.062;11.722;2023-04-15T06:02:36;100228.56;;;7.25;100.00
47670;BME280;33408;52.062;11.722;2023-04-15T06:05:03;100235.50;;;7.21;100.00
47670;BME280;33408;52.062;11.722;2023-04-15T06:07:34;100236.28;;;7.26;100.00
47670;BME280;33408;52.062;11.722;2023-04-15T06:10:00;100228.47;;;7.34;100.00
47670;BME280;33408;52.062;11.722;2023-04-15T06:12:27;100239.63;;;7.33;100.00
47670;BME280;33408;52.062;11.722;2023-04-15T06:14:53;100223.41;;;7.25;100.00
47670;BME280;33408;52.062;11.722;2023-04-15T06:17:21;100227.59;;;7.32;100.00
47670;BME280;33408;52.062;11.722;2023-04-15T06:19:48;100224.16;;;7.33;100.00
47670;BME280;33408;52.062;11.722;2023-04-15T06:22:19;100229.41;;;7.27;100.00
47670;BME280;33408;52.062;11.722;2023-04-15T06:24:46;100232.72;;;7.35;100.00
47670;BME280;33408;52.062;11.722;2023-04-15T06:27:13;100219.84;;;7.34;100.00
47670;BME280;33408;52.062;11.722;2023-04-15T06:29:39;100224.16;;;7.35;100.00
47670;BME280;33408;52.062;11.722;2023-04-15T06:32:06;100226.66;;;7.39;100.00
47670;BME280;33408;52.062;11.722;2023-04-15T06:34:34;100231.63;;;7.53;100.00
47670;BME280;33408;52.062;11.722;2023-04-15T06:37:00;100237.72;;;7.49;100.00
47670;BME280;33408;52.062;11.722;2023-04-15T06:39:27;100234.25;;;7.50;100.00
47670;BME280;33408;52.062;11.722;2023-04-15T06:41:54;100233.41;;;7.49;100.00
47670;BME280;33408;52.062;11.722;2023-04-15T06:44:20;100238.63;;;7.45;100.00
47670;BME280;33408;52.062;11.722;2023-04-15T06:46:47;100227.31;;;7.55;100.00
47670;BME280;33408;52.062;11.722;2023-04-15T06:49:14;100234.34;;;7.44;100.00
47670;BME280;33408;52.062;11.722;2023-04-15T06:51:42;100245.25;;;7.63;100.00
47670;BME280;33408;52.062;11.722;2023-04-15T06:54:09;100243.56;;;7.60;100.00
47670;BME280;33408;52.062;11.722;2023-04-15T06:56:35;100245.28;;;7.60;100.00
47670;BME280;33408;52.062;11.722;2023-04-15T06:59:02;100245.06;;;7.75;100.00
47670;BME280;33408;52.062;11.722;2023-04-15T07:01:28;100246.16;;;7.60;100.00
47670;BME280;33408;52.062;11.722;2023-04-15T07:03:55;100240.91;;;7.66;100.00
47670;BME280;33408;52.062;11.722;2023-04-15T07:06:22;100251.06;;;7.77;100.00
47670;BME280;33408;52.062;11.722;2023-04-15T07:08:50;100245.91;;;7.76;100.00
47670;BME280;33408;52.062;11.722;2023-04-15T07:11:17;100257.84;;;7.84;100.00
47670;BME280;33408;52.062;11.722;2023-04-15T07:13:43;100241.56;;;7.81;100.00
47670;BME280;33408;52.062;11.722;2023-04-15T07:16:10;100249.31;;;7.81;100.00
47670;BME280;33408;52.062;11.722;2023-04-15T07:18:37;100249.31;;;7.81;100.00
47670;BME280;33408;52.062;11.722;2023-04-15T07:21:04;100243.31;;;7.77;100.00
47670;BME280;33408;52.062;11.722;2023-04-15T07:23:30;100249.13;;;7.90;100.00
47670;BME280;33408;52.062;11.722;2023-04-15T07:25:58;100251.81;;;7.84;100.00
47670;BME280;33408;52.062;11.722;2023-04-15T07:28:25;100253.63;;;7.77;100.00
47670;BME280;33408;52.062;11.722;2023-04-15T07:30:52;100260.09;;;8.04;100.00
47670;BME280;33408;52.062;11.722;2023-04-15T07:33:18;100263.94;;;7.79;100.00
47670;BME280;33408;52.062;11.722;2023-04-15T07:35:45;100254.31;;;7.90;100.00
47670;BME280;33408;52.062;11.722;2023-04-15T07:38:12;100255.19;;;7.89;100.00
47670;BME280;33408;52.062;11.722;2023-04-15T07:40:39;100247.19;;;8.06;100.00
47670;BME280;33408;52.062;11.722;2023-04-15T07:43:07;100254.75;;;8.18;100.00
47670;BME280;33408;52.062;11.722;2023-04-15T07:45:35;100259.91;;;8.18;100.00
47670;BME280;33408;52.062;11.722;2023-04-15T07:48:01;100257.38;;;8.14;100.00
47670;BME280;33408;52.062;11.722;2023-04-15T07:50:28;100253.75;;;8.24;100.00
47670;BME280;33408;52.062;11.722;2023-04-15T07:52:54;100259.72;;;8.29;100.00
47670;BME280;33408;52.062;11.722;2023-04-15T07:55:22;100260.56;;;8.31;100.00
47670;BME280;33408;52.062;11.722;2023-04-15T07:57:49;100262.31;;;8.29;100.00
47670;BME280;33408;52.062;11.722;2023-04-15T08:00:17;100259.69;;;8.32;100.00
47670;BME280;33408;52.062;11.722;2023-04-15T08:02:44;100275.19;;;8.32;100.00
47670;BME280;33408;52.062;11.722;2023-04-15T08:05:12;100269.84;;;8.43;100.00
47670;BME280;33408;52.062;11.722;2023-04-15T08:07:39;100266.22;;;8.55;100.00
47670;BME280;33408;52.062;11.722;2023-04-15T08:10:07;100274.16;;;8.41;100.00
47670;BME280;33408;52.062;11.722;2023-04-15T08:12:33;100273.19;;;8.48;100.00
47670;BME280;33408;52.062;11.722;2023-04-15T08:15:00;100275.75;;;8.50;100.00
47670;BME280;33408;52.062;11.722;2023-04-15T08:17:28;100278.16;;;8.61;100.00
47670;BME280;33408;52.062;11.722;2023-04-15T08:19:55;100281.75;;;8.53;100.00
47670;BME280;33408;52.062;11.722;2023-04-15T08:22:22;100289.50;;;8.52;100.00
47670;BME280;33408;52.062;11.722;2023-04-15T08:24:48;100293.72;;;8.57;100.00
47670;BME280;33408;52.062;11.722;2023-04-15T08:27:15;100290.16;;;8.65;100.00
47670;BME280;33408;52.062;11.722;2023-04-15T08:29:42;100289.19;;;8.70;100.00
47670;BME280;33408;52.062;11.722;2023-04-15T08:32:09;100292.59;;;8.71;100.00
47670;BME280;33408;52.062;11.722;2023-04-15T08:34:37;100289.91;;;8.77;100.00
47670;BME280;33408;52.062;11.722;2023-04-15T08:37:04;100290.75;;;8.81;100.00
47670;BME280;33408;52.062;11.722;2023-04-15T08:39:31;100290.78;;;8.78;100.00
47670;BME280;33408;52.062;11.722;2023-04-15T08:42:00;100290.50;;;8.93;100.00
47670;BME280;33408;52.062;11.722;2023-04-15T08:44:28;100292.31;;;8.88;100.00
47670;BME280;33408;52.062;11.722;2023-04-15T08:46:56;100286.94;;;9.00;100.00
47670;BME280;33408;52.062;11.722;2023-04-15T08:49:26;100293.00;;;8.98;100.00
47670;BME280;33408;52.062;11.722;2023-04-15T08:51:54;100297.88;;;9.13;100.00
47670;BME280;33408;52.062;11.722;2023-04-15T08:54:23;100299.56;;;9.14;100.00
47670;BME280;33408;52.062;11.722;2023-04-15T08:56:51;100297.94;;;9.10;100.00
47670;BME280;33408;52.062;11.722;2023-04-15T08:59:18;100298.06;;;9.02;100.00
47670;BME280;33408;52.062;11.722;2023-04-15T09:01:45;100302.97;;;9.18;100.00
47670;BME280;33408;52.062;11.722;2023-04-15T09:04:13;100315.84;;;9.19;100.00
47670;BME280;33408;52.062;11.722;2023-04-15T09:06:39;100319.19;;;9.26;100.00
47670;BME280;33408;52.062;11.722;2023-04-15T09:09:08;100318.69;;;9.07;100.00
47670;BME280;33408;52.062;11.722;2023-04-15T09:11:35;100322.78;;;9.17;100.00
47670;BME280;33408;52.062;11.722;2023-04-15T09:14:02;100318.28;;;9.27;100.00
47670;BME280;33408;52.062;11.722;2023-04-15T09:16:28;100323.53;;;9.22;100.00
47670;BME280;33408;52.062;11.722;2023-04-15T09:18:56;100325.31;;;9.20;100.00
47670;BME280;33408;52.062;11.722;2023-04-15T09:21:23;100325.13;;;9.31;100.00
47670;BME280;33408;52.062;11.722;2023-04-15T09:23:54;100328.59;;;9.28;100.00
47670;BME280;33408;52.062;11.722;2023-04-15T09:26:31;100332.84;;;9.33;100.00
47670;BME280;33408;52.062;11.722;2023-04-15T09:29:03;100333.63;;;9.36;100.00
47670;BME280;33408;52.062;11.722;2023-04-15T09:31:30;100341.38;;;9.36;100.00
47670;BME280;33408;52.062;11.722;2023-04-15T09:33:57;100339.59;;;9.40;100.00
47670;BME280;33408;52.062;11.722;2023-04-15T09:36:24;100340.56;;;9.34;100.00
47670;BME280;33408;52.062;11.722;2023-04-15T09:38:54;100349.88;;;9.43;100.00
47670;BME280;33408;52.062;11.722;2023-04-15T09:41:21;100349.03;;;9.42;100.00
47670;BME280;33408;52.062;11.722;2023-04-15T09:43:50;100350.69;;;9.45;100.00
47670;BME280;33408;52.062;11.722;2023-04-15T09:46:16;100341.69;;;9.64;100.00
47670;BME280;33408;52.062;11.722;2023-04-15T09:48:43;100344.44;;;9.57;100.00
47670;BME280;33408;52.062;11.722;2023-04-15T09:51:10;100340.56;;;9.76;100.00
47670;BME280;33408;52.062;11.722;2023-04-15T09:53:36;100343.19;;;9.75;100.00
47670;BME280;33408;52.062;11.722;2023-04-15T09:56:03;100351.28;;;9.58;100.00
47670;BME280;33408;52.062;11.722;2023-04-15T09:58:33;100352.94;;;9.62;100.00
47670;BME280;33408;52.062;11.722;2023-04-15T10:01:04;100353.00;;;9.59;100.00
47670;BME280;33408;52.062;11.722;2023-04-15T10:03:34;100351.19;;;9.62;100.00
47670;BME280;33408;52.062;11.722;2023-04-15T10:06:02;100365.44;;;9.83;100.00
47670;BME280;33408;52.062;11.722;2023-04-15T10:08:31;100351.84;;;9.72;100.00
47670;BME280;33408;52.062;11.722;2023-04-15T10:10:59;100353.56;;;9.73;100.00
47670;BME280;33408;52.062;11.722;2023-04-15T10:13:29;100356.75;;;9.86;100.00
47670;BME280;33408;52.062;11.722;2023-04-15T10:15:59;100354.88;;;9.93;100.00
47670;BME280;33408;52.062;11.722;2023-04-15T10:18:31;100353.16;;;9.92;100.00
47670;BME280;33408;52.062;11.722;2023-04-15T10:21:00;100359.25;;;9.91;100.00
47670;BME280;33408;52.062;11.722;2023-04-15T10:23:27;100362.56;;;9.97;100.00
47670;BME280;33408;52.062;11.722;2023-04-15T10:25:55;100357.22;;;10.05;100.00
47670;BME280;33408;52.062;11.722;2023-04-15T10:28:23;100357.06;;;10.11;100.00
47670;BME280;33408;52.062;11.722;2023-04-15T10:30:50;100368.38;;;10.07;100.00
47670;BME280;33408;52.062;11.722;2023-04-15T10:33:20;100366.59;;;10.09;100.00
47670;BME280;33408;52.062;11.722;2023-04-15T10:35:49;100368.34;;;10.09;100.00
47670;BME280;33408;52.062;11.722;2023-04-15T10:38:30;100370.75;;;10.18;100.00
47670;BME280;33408;52.062;11.722;2023-04-15T10:41:11;100365.66;;;10.13;100.00
47670;BME280;33408;52.062;11.722;2023-04-15T10:43:38;100373.41;;;10.15;100.00
47670;BME280;33408;52.062;11.722;2023-04-15T10:46:04;100373.63;;;10.04;100.00
47670;BME280;33408;52.062;11.722;2023-04-15T10:48:32;100369.34;;;10.03;100.00
47670;BME280;33408;52.062;11.722;2023-04-15T10:51:00;100371.97;;;10.01;100.00
47670;BME280;33408;52.062;11.722;2023-04-15T10:53:28;100367.66;;;10.00;100.00
47670;BME280;33408;52.062;11.722;2023-04-15T10:55:56;100372.38;;;10.20;100.00
47670;BME280;33408;52.062;11.722;2023-04-15T10:58:23;100371.69;;;10.14;100.00
47670;BME280;33408;52.062;11.722;2023-04-15T11:00:51;100376.13;;;10.09;100.00
47670;BME280;33408;52.062;11.722;2023-04-15T11:03:35;100377.91;;;10.07;100.00
47670;BME280;33408;52.062;11.722;2023-04-15T11:06:04;100373.63;;;10.04;100.00
47670;BME280;33408;52.062;11.722;2023-04-15T11:08:54;100381.31;;;10.07;100.00
47670;BME280;33408;52.062;11.722;2023-04-15T11:11:22;100377.94;;;10.05;100.00
47670;BME280;33408;52.062;11.722;2023-04-15T11:13:50;100374.56;;;10.01;100.00
47670;BME280;33408;52.062;11.722;2023-04-15T11:16:17;100374.44;;;10.06;100.00
47670;BME280;33408;52.062;11.722;2023-04-15T11:18:52;100384.59;;;10.15;100.00
47670;BME280;33408;52.062;11.722;2023-04-15T11:21:23;100389.72;;;10.18;100.00
47670;BME280;33408;52.062;11.722;2023-04-15T11:23:50;100386.50;;;10.07;100.00
47670;BME280;33408;52.062;11.722;2023-04-15T11:26:17;100389.84;;;10.12;100.00
47670;BME280;33408;52.062;11.722;2023-04-15T11:28:45;100392.56;;;10.06;100.00
47670;BME280;33408;52.062;11.722;2023-04-15T11:31:13;100399.34;;;10.12;100.00
47670;BME280;33408;52.062;11.722;2023-04-15T11:33:52;100401.22;;;10.05;100.00
47670;BME280;33408;52.062;11.722;2023-04-15T11:36:23;100403.63;;;10.14;100.00
47670;BME280;33408;52.062;11.722;2023-04-15T11:38:50;100413.41;;;10.01;100.00
47670;BME280;33408;52.062;11.722;2023-04-15T11:41:19;100412.53;;;10.01;100.00
47670;BME280;33408;52.062;11.722;2023-04-15T11:43:46;100408.00;;;10.11;100.00
47670;BME280;33408;52.062;11.722;2023-04-15T11:46:13;100420.97;;;10.09;100.00
47670;BME280;33408;52.062;11.722;2023-04-15T11:48:42;100417.41;;;10.16;100.00
47670;BME280;33408;52.062;11.722;2023-04-15T11:51:10;100424.41;;;10.11;100.00
47670;BME280;33408;52.062;11.722;2023-04-15T11:53:39;100415.66;;;10.17;100.00
47670;BME280;33408;52.062;11.722;2023-04-15T11:56:07;100424.53;;;10.05;100.00
47670;BME280;33408;52.062;11.722;2023-04-15T11:58:35;100426.41;;;9.98;100.00
47670;BME280;33408;52.062;11.722;2023-04-15T12:01:04;100428.75;;;10.09;100.00
47670;BME280;33408;52.062;11.722;2023-04-15T12:03:36;100434.16;;;10.00;100.00
47670;BME280;33408;52.062;11.722;2023-04-15T12:06:15;100436.59;;;10.06;100.00
47670;BME280;33408;52.062;11.722;2023-04-15T12:09:08;100439.41;;;9.95;100.00
47670;BME280;33408;52.062;11.722;2023-04-15T12:11:39;100440.19;;;10.00;100.00
47670;BME280;33408;52.062;11.722;2023-04-15T12:14:08;100450.50;;;10.02;100.00
47670;BME280;33408;52.062;11.722;2023-04-15T12:16:37;100445.25;;;10.05;100.00
47670;BME280;33408;52.062;11.722;2023-04-15T12:19:06;100448.09;;;9.93;100.00
47670;BME280;33408;52.062;11.722;2023-04-15T12:21:35;100450.50;;;10.02;100.00
47670;BME280;33408;52.062;11.722;2023-04-15T12:24:06;100462.63;;;10.00;100.00
47670;BME280;33408;52.062;11.722;2023-04-15T12:26:36;100461.84;;;9.95;100.00
47670;BME280;33408;52.062;11.722;2023-04-15T12:29:05;100459.25;;;9.95;100.00
47670;BME280;33408;52.062;11.722;2023-04-15T12:31:33;100468.78;;;9.94;100.00
47670;BME280;33408;52.062;11.722;2023-04-15T12:34:01;100476.47;;;9.99;100.00
47670;BME280;33408;52.062;11.722;2023-04-15T12:36:28;100476.63;;;9.90;100.00
47670;BME280;33408;52.062;11.722;2023-04-15T12:39:00;100479.97;;;9.95;100.00
47670;BME280;33408;52.062;11.722;2023-04-15T12:41:26;100482.38;;;10.06;100.00